Station History

Weather Underground - logo

Station Historical Data
Daily Summary for March 5, 2018 Units:  English    Metric   Both
« Previous Day
Next Day »
Daily Weekly Monthly Yearly Custom
  High: Low: Average:
Temperature: 61.8 °F 32.6 °F 47.5 °F
Dew Point: 44.3 °F 30.8 °F 38.7 °F
Humidity: 95 % 44 % 74 %
Wind Speed: 6.9 mph 0.0 mph 1.1 mph
Wind Gust: 6.9 mph - -
Wind:- - SW
Pressure: 30.36 in 30.16 in -
Precipitation: 0.00 in    
Historical Graphs
 
 
Tabular Data for March 5, 2018
Time Temperature Dew Point Pressure Wind Wind Speed Wind Gust Humidity Rainfall Rate (Hourly)
00:01 39.5 °F 36.8 °F 30.35 in Calm     90 % 0.00 in
00:06 39.9 °F 36.9 °F 30.35 in Calm     89 % 0.00 in
00:11 39.9 °F 36.9 °F 30.35 in Calm     89 % 0.00 in
00:16 39.8 °F 36.8 °F 30.35 in Calm     89 % 0.00 in
00:21 39.6 °F 36.3 °F 30.36 in Calm     88 % 0.00 in
00:26 39.2 °F 36.2 °F 30.36 in Calm     89 % 0.00 in
00:31 38.9 °F 35.9 °F 30.36 in Calm     89 % 0.00 in
00:36 38.5 °F 35.5 °F 30.36 in Calm     89 % 0.00 in
00:41 38.1 °F 35.1 °F 30.36 in Calm     89 % 0.00 in
00:46 37.9 °F 35.2 °F 30.36 in Calm     90 % 0.00 in
00:51 38.0 °F 35.6 °F 30.36 in Calm     91 % 0.00 in
00:56 38.0 °F 35.6 °F 30.36 in Calm     91 % 0.00 in
01:01 37.9 °F 35.5 °F 30.36 in Calm     91 % 0.00 in
01:06 37.7 °F 35.3 °F 30.36 in Calm     91 % 0.00 in
01:11 37.6 °F 35.2 °F 30.36 in Calm     91 % 0.00 in
01:16 37.7 °F 35.6 °F 30.36 in Calm     92 % 0.00 in
01:21 37.9 °F 35.8 °F 30.36 in Calm     92 % 0.00 in
01:26 38.3 °F 36.2 °F 30.36 in Calm     92 % 0.00 in
01:31 38.4 °F 36.0 °F 30.36 in Calm     91 % 0.00 in
01:36 38.4 °F 36.0 °F 30.36 in Calm     91 % 0.00 in
01:41 38.3 °F 35.6 °F 30.35 in Calm     90 % 0.00 in
01:46 38.1 °F 35.7 °F 30.35 in Calm     91 % 0.00 in
01:51 38.0 °F 35.6 °F 30.35 in Calm     91 % 0.00 in
01:56 38.1 °F 35.7 °F 30.35 in Calm     91 % 0.00 in
02:01 37.8 °F 35.1 °F 30.35 in Calm     90 % 0.00 in
02:06 37.0 °F 34.1 °F 30.35 in NNE 6.9 mph   89 % 0.00 in
02:11 36.7 °F 34.0 °F 30.34 in Calm     90 % 0.00 in
02:16 36.7 °F 34.3 °F 30.34 in Calm     91 % 0.00 in
02:21 36.8 °F 34.4 °F 30.34 in Calm     91 % 0.00 in
02:26 36.9 °F 34.5 °F 30.33 in Calm     91 % 0.00 in
02:31 36.7 °F 34.3 °F 30.33 in Calm     91 % 0.00 in
02:37 36.5 °F 34.1 °F 30.33 in Calm     91 % 0.00 in
02:42 36.1 °F 33.5 °F 30.33 in Calm     90 % 0.00 in
02:47 35.9 °F 33.5 °F 30.33 in Calm     91 % 0.00 in
02:52 35.5 °F 32.9 °F 30.33 in Calm     90 % 0.00 in
02:57 35.0 °F 32.4 °F 30.33 in Calm     90 % 0.00 in
03:02 34.6 °F 32.0 °F 30.33 in Calm     90 % 0.00 in
03:07 34.4 °F 32.0 °F 30.33 in Calm     91 % 0.00 in
03:12 34.3 °F 31.9 °F 30.33 in Calm     91 % 0.00 in
03:17 34.6 °F 32.5 °F 30.33 in Calm     92 % 0.00 in
03:22 34.9 °F 33.1 °F 30.33 in Calm     93 % 0.00 in
03:27 35.1 °F 33.3 °F 30.33 in Calm     93 % 0.00 in
03:32 35.2 °F 33.4 °F 30.32 in Calm     93 % 0.00 in
03:37 35.2 °F 33.4 °F 30.33 in Calm     93 % 0.00 in
03:42 35.0 °F 33.2 °F 30.33 in Calm     93 % 0.00 in
03:47 34.9 °F 33.1 °F 30.33 in Calm     93 % 0.00 in
03:52 34.6 °F 32.5 °F 30.33 in Calm     92 % 0.00 in
03:57 34.5 °F 32.7 °F 30.33 in Calm     93 % 0.00 in
04:02 34.5 °F 32.7 °F 30.33 in Calm     93 % 0.00 in
04:07 34.7 °F 32.9 °F 30.33 in Calm     93 % 0.00 in
04:12 34.8 °F 33.0 °F 30.33 in Calm     93 % 0.00 in
04:17 34.8 °F 33.0 °F 30.33 in Calm     93 % 0.00 in
04:22 34.9 °F 33.1 °F 30.33 in Calm     93 % 0.00 in
04:27 35.0 °F 33.4 °F 30.32 in Calm     94 % 0.00 in
04:32 35.2 °F 33.6 °F 30.33 in Calm     94 % 0.00 in
04:37 35.2 °F 33.6 °F 30.32 in Calm     94 % 0.00 in
04:42 35.2 °F 33.6 °F 30.32 in Calm     94 % 0.00 in
04:47 35.4 °F 33.8 °F 30.32 in NNE 1.2 mph   94 % 0.00 in
04:52 35.6 °F 34.0 °F 30.33 in Calm     94 % 0.00 in
04:57 35.5 °F 33.9 °F 30.33 in Calm     94 % 0.00 in
05:02 35.2 °F 33.4 °F 30.33 in Calm     93 % 0.00 in
05:07 34.9 °F 33.1 °F 30.33 in Calm     93 % 0.00 in
05:12 34.5 °F 32.7 °F 30.33 in Calm     93 % 0.00 in
05:17 34.3 °F 32.5 °F 30.33 in Calm     93 % 0.00 in
05:22 33.9 °F 32.1 °F 30.33 in Calm     93 % 0.00 in
05:27 33.8 °F 32.0 °F 30.33 in Calm     93 % 0.00 in
05:32 33.8 °F 32.0 °F 30.33 in Calm     93 % 0.00 in
05:37 33.6 °F 31.8 °F 30.33 in Calm     93 % 0.00 in
05:42 33.3 °F 31.5 °F 30.33 in Calm     93 % 0.00 in
05:47 33.1 °F 31.3 °F 30.33 in Calm     93 % 0.00 in
05:52 33.0 °F 31.2 °F 30.33 in Calm     93 % 0.00 in
05:57 32.7 °F 30.9 °F 30.33 in Calm     93 % 0.00 in
06:02 32.6 °F 30.8 °F 30.33 in Calm     93 % 0.00 in
06:07 32.8 °F 31.0 °F 30.33 in Calm     93 % 0.00 in
06:13 32.9 °F 31.4 °F 30.33 in Calm     94 % 0.00 in
06:17 33.1 °F 31.6 °F 30.33 in Calm     94 % 0.00 in
06:22 33.3 °F 31.8 °F 30.33 in Calm     94 % 0.00 in
06:27 33.3 °F 31.8 °F 30.33 in Calm     94 % 0.00 in
06:33 33.3 °F 31.8 °F 30.33 in NNE 1.2 mph 1.2 mph 94 % 0.00 in
06:38 33.2 °F 31.7 °F 30.33 in Calm     94 % 0.00 in
06:43 33.3 °F 31.8 °F 30.33 in Calm     94 % 0.00 in
06:48 33.4 °F 31.9 °F 30.33 in NNE 1.2 mph 1.2 mph 94 % 0.00 in
06:53 33.7 °F 32.2 °F 30.33 in Calm     94 % 0.00 in
06:58 33.9 °F 32.4 °F 30.33 in Calm     94 % 0.00 in
07:03 34.3 °F 32.8 °F 30.33 in Calm     94 % 0.00 in
07:08 34.8 °F 33.2 °F 30.33 in Calm     94 % 0.00 in
07:13 35.2 °F 33.9 °F 30.33 in Calm     95 % 0.00 in
07:18 35.6 °F 34.3 °F 30.33 in Calm     95 % 0.00 in
07:23 36.3 °F 35.0 °F 30.33 in Calm     95 % 0.00 in
07:28 36.8 °F 35.5 °F 30.33 in Calm     95 % 0.00 in
07:33 38.3 °F 37.0 °F 30.33 in ESE 1.0 mph   95 % 0.00 in
07:38 39.9 °F 38.6 °F 30.34 in Calm     95 % 0.00 in
07:43 41.2 °F 39.1 °F 30.34 in Calm     92 % 0.00 in
07:48 42.6 °F 39.6 °F 30.34 in Calm     89 % 0.00 in
07:53 43.6 °F 40.0 °F 30.34 in Calm     87 % 0.00 in
07:58 44.5 °F 40.0 °F 30.34 in Calm     84 % 0.00 in
08:03 45.1 °F 39.6 °F 30.33 in Calm     81 % 0.00 in
08:08 45.6 °F 39.8 °F 30.34 in SSE 1.2 mph 1.2 mph 80 % 0.00 in
08:13 46.1 °F 39.9 °F 30.34 in ESE 1.2 mph 1.2 mph 79 % 0.00 in
08:18 46.7 °F 40.2 °F 30.33 in ESE 3.5 mph 3.5 mph 78 % 0.00 in
08:23 46.8 °F 40.0 °F 30.34 in South 2.3 mph 2.3 mph 77 % 0.00 in
08:28 47.5 °F 40.6 °F 30.34 in SE 1.2 mph   77 % 0.00 in
08:33 47.7 °F 40.2 °F 30.34 in East 1.2 mph 1.2 mph 75 % 0.00 in
08:38 47.8 °F 39.9 °F 30.34 in SE 3.5 mph 3.5 mph 74 % 0.00 in
08:43 48.1 °F 40.5 °F 30.34 in ESE 1.2 mph 1.2 mph 75 % 0.00 in
08:48 48.8 °F 40.5 °F 30.34 in SE 2.0 mph 2.0 mph 73 % 0.00 in
08:53 49.1 °F 40.8 °F 30.34 in SE 2.0 mph 2.0 mph 73 % 0.00 in
08:58 49.6 °F 40.9 °F 30.33 in ESE 2.3 mph 2.3 mph 72 % 0.00 in
09:03 49.9 °F 40.5 °F 30.33 in SE 2.3 mph 2.3 mph 70 % 0.00 in
09:08 50.4 °F 41.0 °F 30.33 in SE 2.3 mph 2.3 mph 70 % 0.00 in
09:13 50.9 °F 41.1 °F 30.33 in ESE 1.2 mph   69 % 0.00 in
09:18 51.5 °F 40.9 °F 30.33 in ESE 3.5 mph 3.5 mph 67 % 0.00 in
09:23 51.7 °F 40.7 °F 30.32 in SE 3.5 mph 3.5 mph 66 % 0.00 in
09:28 51.9 °F 40.9 °F 30.32 in SE 2.3 mph 2.3 mph 66 % 0.00 in
09:29 51.9 °F 40.9 °F 30.32 in SSW 3.5 mph 3.5 mph 66 % 0.00 in
09:34 52.4 °F 41.4 °F 30.32 in SE 2.3 mph 2.3 mph 66 % 0.00 in
09:39 52.6 °F 40.4 °F 30.32 in South 3.5 mph 3.5 mph 63 % 0.00 in
09:44 52.8 °F 40.5 °F 30.32 in SE 3.5 mph 3.5 mph 63 % 0.00 in
09:49 53.0 °F 40.7 °F 30.32 in ESE 1.2 mph 1.2 mph 63 % 0.00 in
09:54 53.3 °F 41.0 °F 30.32 in SSE 4.6 mph 4.6 mph 63 % 0.00 in
10:00 53.7 °F 41.0 °F 30.32 in SSE 3.5 mph 3.5 mph 62 % 0.00 in
10:05 54.0 °F 41.3 °F 30.32 in WNW 2.3 mph 2.3 mph 62 % 0.00 in
10:10 53.9 °F 40.8 °F 30.31 in NNW 1.2 mph 1.2 mph 61 % 0.00 in
10:15 53.7 °F 41.0 °F 30.31 in SSE 2.3 mph 2.3 mph 62 % 0.00 in
10:20 54.4 °F 41.2 °F 30.31 in SE 3.5 mph 3.5 mph 61 % 0.00 in
10:25 55.0 °F 40.5 °F 30.31 in NNW 2.3 mph 2.3 mph 58 % 0.00 in
10:30 54.7 °F 41.1 °F 30.31 in SSE 3.5 mph 3.5 mph 60 % 0.00 in
10:35 55.1 °F 42.3 °F 30.31 in WNW 2.0 mph 2.0 mph 62 % 0.00 in
10:40 55.1 °F 41.9 °F 30.31 in SE 2.3 mph 2.3 mph 61 % 0.00 in
10:45 55.4 °F 42.6 °F 30.31 in South 2.3 mph 2.3 mph 62 % 0.00 in
10:50 55.6 °F 41.5 °F 30.31 in WSW 3.5 mph 3.5 mph 59 % 0.00 in
10:55 55.5 °F 41.8 °F 30.31 in SSE 2.3 mph 2.3 mph 60 % 0.00 in
11:00 56.0 °F 41.9 °F 30.31 in WNW 2.3 mph 2.3 mph 59 % 0.00 in
11:05 56.6 °F 42.4 °F 30.30 in SE 1.2 mph 1.2 mph 59 % 0.00 in
11:10 56.4 °F 41.8 °F 30.31 in NW 2.3 mph 2.3 mph 58 % 0.00 in
11:15 56.4 °F 41.8 °F 30.30 in NW 3.5 mph 3.5 mph 58 % 0.00 in
11:20 55.9 °F 41.3 °F 30.30 in NW 3.5 mph 3.5 mph 58 % 0.00 in
11:25 55.7 °F 41.1 °F 30.30 in NNW 1.2 mph 1.2 mph 58 % 0.00 in
11:30 55.9 °F 40.9 °F 30.30 in WNW 4.0 mph 4.0 mph 57 % 0.00 in
11:35 56.3 °F 41.3 °F 30.30 in West 2.3 mph 2.3 mph 57 % 0.00 in
11:40 56.8 °F 41.7 °F 30.29 in ESE 2.3 mph 2.3 mph 57 % 0.00 in
11:45 57.4 °F 41.4 °F 30.29 in West 2.3 mph 2.3 mph 55 % 0.00 in
11:50 57.1 °F 41.1 °F 30.29 in WNW 2.0 mph 2.0 mph 55 % 0.00 in
11:55 56.9 °F 41.4 °F 30.29 in NW 3.5 mph 3.5 mph 56 % 0.00 in
12:00 57.4 °F 42.7 °F 30.29 in Calm     58 % 0.00 in
12:05 57.8 °F 43.6 °F 30.28 in WNW 1.2 mph 1.2 mph 59 % 0.00 in
12:10 57.9 °F 42.3 °F 30.28 in NNE 2.3 mph 2.3 mph 56 % 0.00 in
12:15 58.0 °F 41.9 °F 30.28 in WNW 2.3 mph 2.3 mph 55 % 0.00 in
12:20 58.6 °F 44.3 °F 30.27 in SE 3.5 mph 3.5 mph 59 % 0.00 in
12:25 59.4 °F 42.7 °F 30.27 in NW 2.3 mph 2.3 mph 54 % 0.00 in
12:30 58.8 °F 41.7 °F 30.27 in NW 3.5 mph 3.5 mph 53 % 0.00 in
12:35 58.6 °F 41.5 °F 30.26 in NW 2.3 mph 2.3 mph 53 % 0.00 in
12:40 58.6 °F 41.0 °F 30.26 in NW 3.5 mph 3.5 mph 52 % 0.00 in
12:45 58.7 °F 41.1 °F 30.26 in NW 2.3 mph 2.3 mph 52 % 0.00 in
12:50 58.9 °F 41.3 °F 30.26 in WNW 2.3 mph 2.3 mph 52 % 0.00 in
12:55 59.7 °F 42.5 °F 30.25 in SE 1.2 mph   53 % 0.00 in
13:00 60.9 °F 43.6 °F 30.25 in East 1.2 mph 1.2 mph 53 % 0.00 in
13:05 60.7 °F 41.4 °F 30.25 in West 3.5 mph 3.5 mph 49 % 0.00 in
13:10 59.9 °F 40.7 °F 30.25 in NW 3.5 mph 3.5 mph 49 % 0.00 in
13:16 59.7 °F 41.5 °F 30.24 in NW 3.5 mph 3.5 mph 51 % 0.00 in
13:21 59.7 °F 41.0 °F 30.24 in WSW 2.0 mph 2.0 mph 50 % 0.00 in
13:26 60.4 °F 42.2 °F 30.24 in WNW 2.3 mph 2.3 mph 51 % 0.00 in
13:31 60.8 °F 42.5 °F 30.23 in Calm     51 % 0.00 in
13:36 60.5 °F 42.3 °F 30.23 in WSW 1.2 mph 1.2 mph 51 % 0.00 in
13:41 61.0 °F 41.2 °F 30.23 in NW 2.3 mph 2.3 mph 48 % 0.00 in
13:46 60.8 °F 42.0 °F 30.23 in NW 3.5 mph 3.5 mph 50 % 0.00 in
13:51 60.9 °F 41.6 °F 30.23 in NW 3.5 mph 3.5 mph 49 % 0.00 in
13:56 60.7 °F 39.8 °F 30.23 in NW 3.5 mph 3.5 mph 46 % 0.00 in
14:01 61.1 °F 40.7 °F 30.23 in East 1.2 mph 1.2 mph 47 % 0.00 in
14:06 61.3 °F 39.8 °F 30.23 in WNW 3.5 mph 3.5 mph 45 % 0.00 in
14:11 61.0 °F 40.1 °F 30.22 in NW 3.0 mph 3.0 mph 46 % 0.00 in
14:16 61.4 °F 39.3 °F 30.22 in NW 3.5 mph 3.5 mph 44 % 0.00 in
14:21 61.1 °F 40.1 °F 30.22 in WNW 3.5 mph 3.5 mph 46 % 0.00 in
14:26 61.1 °F 40.1 °F 30.22 in ENE 2.3 mph 2.3 mph 46 % 0.00 in
14:31 61.5 °F 41.1 °F 30.22 in Calm     47 % 0.00 in
14:36 61.7 °F 41.8 °F 30.22 in NW 2.3 mph 2.3 mph 48 % 0.00 in
14:41 61.8 °F 41.3 °F 30.22 in NW 2.0 mph 2.0 mph 47 % 0.00 in
14:46 61.7 °F 41.3 °F 30.22 in WNW 2.3 mph 2.3 mph 47 % 0.00 in
14:51 61.6 °F 41.2 °F 30.21 in NW 1.2 mph 1.2 mph 47 % 0.00 in
14:56 61.6 °F 41.7 °F 30.21 in NNW 4.0 mph 4.0 mph 48 % 0.00 in
15:06 61.6 °F 41.2 °F 30.21 in NNW 6.9 mph 6.9 mph 47 % 0.00 in
15:11 61.6 °F 40.6 °F 30.21 in NW 4.0 mph 4.0 mph 46 % 0.00 in
15:16 61.5 °F 40.5 °F 30.21 in NNW 3.5 mph 3.5 mph 46 % 0.00 in
15:21 61.6 °F 40.6 °F 30.20 in NW 3.5 mph 3.5 mph 46 % 0.00 in
15:26 61.3 °F 40.9 °F 30.20 in NNW 3.5 mph 3.5 mph 47 % 0.00 in
15:31 61.3 °F 40.3 °F 30.20 in NNW 3.5 mph 3.5 mph 46 % 0.00 in
15:36 61.0 °F 40.1 °F 30.20 in NW 4.6 mph 4.6 mph 46 % 0.00 in
15:41 60.8 °F 39.9 °F 30.20 in West 3.5 mph 3.5 mph 46 % 0.00 in
15:46 60.8 °F 41.0 °F 30.20 in NNE 4.0 mph 4.0 mph 48 % 0.00 in
15:51 60.9 °F 41.6 °F 30.19 in NW 3.5 mph 3.5 mph 49 % 0.00 in
15:56 60.7 °F 41.9 °F 30.19 in NW 3.5 mph 3.5 mph 50 % 0.00 in
16:01 60.5 °F 41.2 °F 30.19 in NW 3.5 mph 3.5 mph 49 % 0.00 in
16:06 60.5 °F 41.2 °F 30.19 in NW 2.0 mph 2.0 mph 49 % 0.00 in
16:11 60.5 °F 42.3 °F 30.19 in NW 3.5 mph 3.5 mph 51 % 0.00 in
16:16 60.7 °F 41.4 °F 30.18 in NW 3.5 mph 3.5 mph 49 % 0.00 in
16:21 60.6 °F 41.3 °F 30.18 in NNW 3.5 mph 3.5 mph 49 % 0.00 in
16:26 60.5 °F 41.2 °F 30.18 in NW 4.6 mph 4.6 mph 49 % 0.00 in
16:31 60.5 °F 41.8 °F 30.18 in NW 2.3 mph 2.3 mph 50 % 0.00 in
16:36 60.3 °F 41.6 °F 30.17 in NW 6.0 mph 6.0 mph 50 % 0.00 in
16:41 60.1 °F 41.4 °F 30.17 in NW 3.5 mph 3.5 mph 50 % 0.00 in
16:47 60.0 °F 40.8 °F 30.17 in NW 4.6 mph 4.6 mph 49 % 0.00 in
16:52 59.8 °F 41.1 °F 30.17 in NW 2.3 mph 2.3 mph 50 % 0.00 in
16:57 59.8 °F 40.6 °F 30.17 in NNW 3.5 mph 3.5 mph 49 % 0.00 in
17:02 59.7 °F 41.0 °F 30.16 in NNW 2.3 mph 2.3 mph 50 % 0.00 in
17:07 59.5 °F 40.8 °F 30.16 in NW 2.3 mph 2.3 mph 50 % 0.00 in
17:12 59.3 °F 41.2 °F 30.16 in NW 2.3 mph 2.3 mph 51 % 0.00 in
17:17 59.0 °F 40.9 °F 30.16 in NW 2.3 mph 2.3 mph 51 % 0.00 in
17:22 58.9 °F 40.8 °F 30.16 in NW 1.2 mph 1.2 mph 51 % 0.00 in
17:27 58.7 °F 41.6 °F 30.16 in NW 2.3 mph 2.3 mph 53 % 0.00 in
17:32 58.4 °F 41.8 °F 30.16 in Calm     54 % 0.00 in
17:37 58.1 °F 41.5 °F 30.16 in Calm     54 % 0.00 in
17:42 57.9 °F 41.8 °F 30.16 in NW 1.2 mph   55 % 0.00 in
17:47 57.5 °F 42.4 °F 30.16 in Calm     57 % 0.00 in
17:52 56.8 °F 42.6 °F 30.16 in Calm     59 % 0.00 in
17:57 56.1 °F 42.8 °F 30.16 in Calm     61 % 0.00 in
18:02 55.6 °F 42.8 °F 30.16 in Calm     62 % 0.00 in
18:07 55.1 °F 42.7 °F 30.16 in Calm     63 % 0.00 in
18:12 54.7 °F 42.8 °F 30.16 in Calm     64 % 0.00 in
18:17 54.4 °F 42.9 °F 30.16 in Calm     65 % 0.00 in
18:22 54.0 °F 42.5 °F 30.16 in Calm     65 % 0.00 in
18:27 53.8 °F 41.9 °F 30.16 in Calm     64 % 0.00 in
18:32 53.8 °F 41.9 °F 30.16 in Calm     64 % 0.00 in
18:37 53.9 °F 42.0 °F 30.16 in Calm     64 % 0.00 in
18:42 54.1 °F 41.8 °F 30.16 in Calm     63 % 0.00 in
18:47 54.1 °F 41.8 °F 30.16 in Calm     63 % 0.00 in
18:52 54.1 °F 41.4 °F 30.16 in Calm     62 % 0.00 in
18:57 54.1 °F 40.9 °F 30.16 in Calm     61 % 0.00 in
19:02 54.0 °F 40.8 °F 30.17 in Calm     61 % 0.00 in
19:07 53.7 °F 41.0 °F 30.17 in Calm     62 % 0.00 in
19:12 53.2 °F 40.5 °F 30.17 in Calm     62 % 0.00 in
19:17 52.6 °F 40.8 °F 30.17 in Calm     64 % 0.00 in
19:22 52.1 °F 41.5 °F 30.17 in Calm     67 % 0.00 in
19:27 51.4 °F 41.9 °F 30.18 in Calm     70 % 0.00 in
19:32 50.6 °F 41.9 °F 30.18 in Calm     72 % 0.00 in
19:38 49.9 °F 41.6 °F 30.18 in Calm     73 % 0.00 in
19:43 49.5 °F 41.6 °F 30.18 in Calm     74 % 0.00 in
19:47 49.1 °F 41.2 °F 30.19 in Calm     74 % 0.00 in
19:53 48.8 °F 41.6 °F 30.19 in Calm     76 % 0.00 in
19:58 48.5 °F 41.6 °F 30.19 in Calm     77 % 0.00 in
20:03 48.3 °F 41.8 °F 30.19 in Calm     78 % 0.00 in
20:08 48.1 °F 41.9 °F 30.19 in Calm     79 % 0.00 in
20:13 47.8 °F 41.9 °F 30.19 in Calm     80 % 0.00 in
20:18 47.6 °F 42.1 °F 30.19 in Calm     81 % 0.00 in
20:23 47.5 °F 42.0 °F 30.19 in Calm     81 % 0.00 in
20:28 47.3 °F 41.8 °F 30.19 in Calm     81 % 0.00 in
20:33 46.9 °F 41.7 °F 30.19 in Calm     82 % 0.00 in
20:38 46.7 °F 42.1 °F 30.19 in Calm     84 % 0.00 in
20:43 46.4 °F 41.8 °F 30.19 in Calm     84 % 0.00 in
20:48 46.4 °F 42.1 °F 30.19 in Calm     85 % 0.00 in
20:53 46.3 °F 42.0 °F 30.19 in Calm     85 % 0.00 in
20:58 46.1 °F 41.5 °F 30.19 in Calm     84 % 0.00 in
21:03 45.9 °F 41.3 °F 30.19 in Calm     84 % 0.00 in
21:08 45.5 °F 41.3 °F 30.19 in Calm     85 % 0.00 in
21:13 45.2 °F 40.7 °F 30.19 in Calm     84 % 0.00 in
21:18 44.9 °F 40.7 °F 30.19 in Calm     85 % 0.00 in
21:23 44.7 °F 41.1 °F 30.19 in Calm     87 % 0.00 in
21:28 44.6 °F 41.0 °F 30.19 in Calm     87 % 0.00 in
21:33 44.4 °F 40.8 °F 30.19 in Calm     87 % 0.00 in
21:38 44.4 °F 41.1 °F 30.18 in Calm     88 % 0.00 in
21:43 44.5 °F 41.2 °F 30.18 in Calm     88 % 0.00 in
21:48 44.7 °F 41.4 °F 30.18 in Calm     88 % 0.00 in
21:53 44.7 °F 41.1 °F 30.18 in Calm     87 % 0.00 in
21:58 44.6 °F 41.0 °F 30.18 in Calm     87 % 0.00 in
22:03 44.3 °F 40.7 °F 30.18 in Calm     87 % 0.00 in
22:08 44.0 °F 40.1 °F 30.18 in Calm     86 % 0.00 in
22:13 43.8 °F 40.2 °F 30.18 in Calm     87 % 0.00 in
22:18 43.6 °F 40.0 °F 30.18 in Calm     87 % 0.00 in
22:23 43.4 °F 39.5 °F 30.18 in Calm     86 % 0.00 in
22:28 43.0 °F 39.4 °F 30.18 in Calm     87 % 0.00 in
22:33 42.6 °F 39.0 °F 30.18 in Calm     87 % 0.00 in
22:38 42.4 °F 38.8 °F 30.18 in Calm     87 % 0.00 in
22:43 42.2 °F 38.9 °F 30.18 in Calm     88 % 0.00 in
22:48 42.1 °F 38.8 °F 30.17 in Calm     88 % 0.00 in
22:53 41.9 °F 38.6 °F 30.17 in Calm     88 % 0.00 in
22:58 41.6 °F 38.3 °F 30.17 in Calm     88 % 0.00 in
23:03 41.8 °F 39.1 °F 30.17 in Calm     90 % 0.00 in
23:08 42.1 °F 39.4 °F 30.17 in Calm     90 % 0.00 in
23:13 42.1 °F 39.1 °F 30.17 in Calm     89 % 0.00 in
23:18 42.1 °F 39.4 °F 30.17 in Calm     90 % 0.00 in
23:23 42.0 °F 39.3 °F 30.17 in Calm     90 % 0.00 in
23:28 42.1 °F 39.4 °F 30.17 in Calm     90 % 0.00 in
23:33 42.0 °F 39.3 °F 30.17 in Calm     90 % 0.00 in
23:38 41.9 °F 39.2 °F 30.17 in Calm     90 % 0.00 in
23:43 41.7 °F 39.0 °F 30.18 in Calm     90 % 0.00 in
23:48 41.5 °F 38.5 °F 30.18 in Calm     89 % 0.00 in
23:53 41.5 °F 38.8 °F 30.18 in Calm     90 % 0.00 in
23:58 41.7 °F 39.0 °F 30.18 in Calm     90 % 0.00 in
Park Place, Exeter, Tulare County, California, USA
Compliments of Weather Underground - 2.75 mb